sensor_id;sensor_type;location;lat;lon;timestamp;P1;durP1;ratioP1;P2;durP2;ratioP2
51836;SDS011;38941;53.254;6.600;2022-08-19T00:01:16;9.98;;;4.07;;
51836;SDS011;38941;53.254;6.600;2022-08-19T00:03:18;4.95;;;3.65;;
51836;SDS011;38941;53.254;6.600;2022-08-19T00:05:19;9.90;;;4.15;;
51836;SDS011;38941;53.254;6.600;2022-08-19T00:07:22;11.07;;;4.60;;
51836;SDS011;38941;53.254;6.600;2022-08-19T00:09:23;6.10;;;4.30;;
51836;SDS011;38941;53.254;6.600;2022-08-19T00:11:24;7.57;;;3.85;;
51836;SDS011;38941;53.254;6.600;2022-08-19T00:13:31;5.97;;;4.03;;
51836;SDS011;38941;53.254;6.600;2022-08-19T00:15:35;7.07;;;3.72;;
51836;SDS011;38941;53.254;6.600;2022-08-19T00:17:35;5.63;;;3.38;;
51836;SDS011;38941;53.254;6.600;2022-08-19T00:19:36;5.10;;;3.15;;
51836;SDS011;38941;53.254;6.600;2022-08-19T00:21:37;6.68;;;3.53;;
51836;SDS011;38941;53.254;6.600;2022-08-19T00:23:39;9.63;;;3.90;;
51836;SDS011;38941;53.254;6.600;2022-08-19T00:25:41;7.32;;;3.63;;
51836;SDS011;38941;53.254;6.600;2022-08-19T00:27:42;10.73;;;3.95;;
51836;SDS011;38941;53.254;6.600;2022-08-19T00:29:42;5.20;;;3.67;;
51836;SDS011;38941;53.254;6.600;2022-08-19T00:31:44;4.97;;;3.83;;
51836;SDS011;38941;53.254;6.600;2022-08-19T00:33:45;6.05;;;3.80;;
51836;SDS011;38941;53.254;6.600;2022-08-19T00:35:48;8.27;;;4.15;;
51836;SDS011;38941;53.254;6.600;2022-08-19T00:37:49;6.35;;;3.45;;
51836;SDS011;38941;53.254;6.600;2022-08-19T00:39:50;8.68;;;3.90;;
51836;SDS011;38941;53.254;6.600;2022-08-19T00:41:52;8.63;;;3.53;;
51836;SDS011;38941;53.254;6.600;2022-08-19T00:43:58;4.78;;;3.55;;
51836;SDS011;38941;53.254;6.600;2022-08-19T00:46:11;6.82;;;3.55;;
51836;SDS011;38941;53.254;6.600;2022-08-19T00:48:11;8.43;;;4.03;;
51836;SDS011;38941;53.254;6.600;2022-08-19T00:50:13;5.68;;;3.88;;
51836;SDS011;38941;53.254;6.600;2022-08-19T00:52:19;5.40;;;3.60;;
51836;SDS011;38941;53.254;6.600;2022-08-19T00:54:28;11.23;;;4.07;;
51836;SDS011;38941;53.254;6.600;2022-08-19T00:56:31;7.30;;;4.35;;
51836;SDS011;38941;53.254;6.600;2022-08-19T00:58:33;5.75;;;4.35;;
51836;SDS011;38941;53.254;6.600;2022-08-19T01:00:35;6.55;;;4.15;;
51836;SDS011;38941;53.254;6.600;2022-08-19T01:02:37;8.43;;;4.70;;
51836;SDS011;38941;53.254;6.600;2022-08-19T01:04:38;6.88;;;4.10;;
51836;SDS011;38941;53.254;6.600;2022-08-19T01:06:39;6.10;;;4.38;;
51836;SDS011;38941;53.254;6.600;2022-08-19T01:08:42;5.10;;;3.58;;
51836;SDS011;38941;53.254;6.600;2022-08-19T01:10:45;7.60;;;4.00;;
51836;SDS011;38941;53.254;6.600;2022-08-19T01:12:48;8.20;;;3.88;;
51836;SDS011;38941;53.254;6.600;2022-08-19T01:14:50;10.07;;;4.60;;
51836;SDS011;38941;53.254;6.600;2022-08-19T01:16:53;8.77;;;5.35;;
51836;SDS011;38941;53.254;6.600;2022-08-19T01:18:56;8.65;;;4.35;;
51836;SDS011;38941;53.254;6.600;2022-08-19T01:20:58;6.55;;;4.20;;
51836;SDS011;38941;53.254;6.600;2022-08-19T01:23:05;9.77;;;4.82;;
51836;SDS011;38941;53.254;6.600;2022-08-19T01:25:06;7.35;;;4.07;;
51836;SDS011;38941;53.254;6.600;2022-08-19T01:27:07;7.50;;;4.72;;
51836;SDS011;38941;53.254;6.600;2022-08-19T01:29:09;5.85;;;4.13;;
51836;SDS011;38941;53.254;6.600;2022-08-19T01:31:13;6.93;;;4.35;;
51836;SDS011;38941;53.254;6.600;2022-08-19T01:33:17;10.35;;;4.50;;
51836;SDS011;38941;53.254;6.600;2022-08-19T01:35:19;7.88;;;4.40;;
51836;SDS011;38941;53.254;6.600;2022-08-19T01:37:24;7.55;;;3.45;;
51836;SDS011;38941;53.254;6.600;2022-08-19T01:39:25;7.35;;;4.63;;
51836;SDS011;38941;53.254;6.600;2022-08-19T01:41:26;8.70;;;4.30;;
51836;SDS011;38941;53.254;6.600;2022-08-19T01:43:27;6.55;;;4.15;;
51836;SDS011;38941;53.254;6.600;2022-08-19T01:45:28;10.20;;;4.47;;
51836;SDS011;38941;53.254;6.600;2022-08-19T01:47:31;7.03;;;4.00;;
51836;SDS011;38941;53.254;6.600;2022-08-19T01:49:32;7.40;;;4.45;;
51836;SDS011;38941;53.254;6.600;2022-08-19T01:51:33;6.40;;;4.20;;
51836;SDS011;38941;53.254;6.600;2022-08-19T01:53:34;8.18;;;4.75;;
51836;SDS011;38941;53.254;6.600;2022-08-19T01:55:36;10.10;;;3.72;;
51836;SDS011;38941;53.254;6.600;2022-08-19T01:57:39;9.60;;;4.55;;
51836;SDS011;38941;53.254;6.600;2022-08-19T01:59:42;5.45;;;3.88;;
51836;SDS011;38941;53.254;6.600;2022-08-19T02:01:45;5.70;;;3.83;;
51836;SDS011;38941;53.254;6.600;2022-08-19T02:03:46;7.18;;;4.20;;
51836;SDS011;38941;53.254;6.600;2022-08-19T02:05:46;5.30;;;4.05;;
51836;SDS011;38941;53.254;6.600;2022-08-19T02:07:49;10.90;;;4.72;;
51836;SDS011;38941;53.254;6.600;2022-08-19T02:09:50;7.88;;;4.50;;
51836;SDS011;38941;53.254;6.600;2022-08-19T02:11:52;6.40;;;3.78;;
51836;SDS011;38941;53.254;6.600;2022-08-19T02:13:54;9.57;;;4.47;;
51836;SDS011;38941;53.254;6.600;2022-08-19T02:15:55;8.13;;;4.53;;
51836;SDS011;38941;53.254;6.600;2022-08-19T02:17:56;9.25;;;4.97;;
51836;SDS011;38941;53.254;6.600;2022-08-19T02:19:57;8.88;;;4.55;;
51836;SDS011;38941;53.254;6.600;2022-08-19T02:21:59;9.02;;;4.90;;
51836;SDS011;38941;53.254;6.600;2022-08-19T02:24:04;10.43;;;4.93;;
51836;SDS011;38941;53.254;6.600;2022-08-19T02:26:04;10.18;;;5.20;;
51836;SDS011;38941;53.254;6.600;2022-08-19T02:28:06;10.13;;;5.35;;
51836;SDS011;38941;53.254;6.600;2022-08-19T02:30:08;13.02;;;5.30;;
51836;SDS011;38941;53.254;6.600;2022-08-19T02:32:12;8.37;;;4.90;;
51836;SDS011;38941;53.254;6.600;2022-08-19T02:34:14;11.02;;;4.88;;
51836;SDS011;38941;53.254;6.600;2022-08-19T02:36:16;8.85;;;4.78;;
51836;SDS011;38941;53.254;6.600;2022-08-19T02:38:18;9.43;;;5.03;;
51836;SDS011;38941;53.254;6.600;2022-08-19T02:40:28;13.63;;;5.90;;
51836;SDS011;38941;53.254;6.600;2022-08-19T02:42:33;11.07;;;6.30;;
51836;SDS011;38941;53.254;6.600;2022-08-19T02:44:35;11.40;;;5.60;;
51836;SDS011;38941;53.254;6.600;2022-08-19T02:46:37;9.85;;;5.30;;
51836;SDS011;38941;53.254;6.600;2022-08-19T02:48:37;11.70;;;6.13;;
51836;SDS011;38941;53.254;6.600;2022-08-19T02:50:39;10.93;;;6.25;;
51836;SDS011;38941;53.254;6.600;2022-08-19T02:52:40;12.77;;;6.47;;
51836;SDS011;38941;53.254;6.600;2022-08-19T02:54:41;12.90;;;5.38;;
51836;SDS011;38941;53.254;6.600;2022-08-19T02:56:43;14.10;;;5.88;;
51836;SDS011;38941;53.254;6.600;2022-08-19T02:58:44;13.13;;;6.07;;
51836;SDS011;38941;53.254;6.600;2022-08-19T03:00:48;11.82;;;6.03;;
51836;SDS011;38941;53.254;6.600;2022-08-19T03:02:50;10.73;;;6.07;;
51836;SDS011;38941;53.254;6.600;2022-08-19T03:04:51;9.75;;;5.80;;
51836;SDS011;38941;53.254;6.600;2022-08-19T03:06:52;12.30;;;5.93;;
51836;SDS011;38941;53.254;6.600;2022-08-19T03:08:53;11.88;;;6.22;;
51836;SDS011;38941;53.254;6.600;2022-08-19T03:10:54;12.13;;;5.22;;
51836;SDS011;38941;53.254;6.600;2022-08-19T03:12:55;9.35;;;5.57;;
51836;SDS011;38941;53.254;6.600;2022-08-19T03:14:56;12.05;;;6.22;;
51836;SDS011;38941;53.254;6.600;2022-08-19T03:16:58;9.77;;;6.05;;
51836;SDS011;38941;53.254;6.600;2022-08-19T03:19:00;12.80;;;6.00;;
51836;SDS011;38941;53.254;6.600;2022-08-19T03:21:02;16.83;;;6.05;;
51836;SDS011;38941;53.254;6.600;2022-08-19T03:23:03;9.98;;;6.55;;
51836;SDS011;38941;53.254;6.600;2022-08-19T03:25:04;12.45;;;6.25;;
51836;SDS011;38941;53.254;6.600;2022-08-19T03:27:05;8.57;;;5.57;;
51836;SDS011;38941;53.254;6.600;2022-08-19T03:29:06;9.27;;;5.85;;
51836;SDS011;38941;53.254;6.600;2022-08-19T03:31:12;11.95;;;6.50;;
51836;SDS011;38941;53.254;6.600;2022-08-19T03:33:14;13.23;;;6.40;;
51836;SDS011;38941;53.254;6.600;2022-08-19T03:35:14;9.75;;;5.43;;
51836;SDS011;38941;53.254;6.600;2022-08-19T03:37:15;11.43;;;6.40;;
51836;SDS011;38941;53.254;6.600;2022-08-19T03:39:17;9.75;;;6.07;;
51836;SDS011;38941;53.254;6.600;2022-08-19T03:41:19;9.40;;;6.05;;
51836;SDS011;38941;53.254;6.600;2022-08-19T03:43:22;10.02;;;5.45;;
51836;SDS011;38941;53.254;6.600;2022-08-19T03:45:23;13.05;;;6.57;;
51836;SDS011;38941;53.254;6.600;2022-08-19T03:47:24;9.30;;;5.20;;
51836;SDS011;38941;53.254;6.600;2022-08-19T03:49:26;11.13;;;5.90;;
51836;SDS011;38941;53.254;6.600;2022-08-19T03:51:30;9.00;;;5.63;;
51836;SDS011;38941;53.254;6.600;2022-08-19T03:53:35;8.88;;;5.07;;
51836;SDS011;38941;53.254;6.600;2022-08-19T03:55:40;8.90;;;5.20;;
51836;SDS011;38941;53.254;6.600;2022-08-19T03:57:42;10.73;;;5.18;;
51836;SDS011;38941;53.254;6.600;2022-08-19T03:59:45;9.43;;;5.60;;
51836;SDS011;38941;53.254;6.600;2022-08-19T04:01:45;10.00;;;6.15;;
51836;SDS011;38941;53.254;6.600;2022-08-19T04:03:47;8.52;;;5.10;;
51836;SDS011;38941;53.254;6.600;2022-08-19T04:05:49;11.02;;;5.45;;
51836;SDS011;38941;53.254;6.600;2022-08-19T04:07:50;10.43;;;5.20;;
51836;SDS011;38941;53.254;6.600;2022-08-19T04:09:51;8.32;;;5.20;;
51836;SDS011;38941;53.254;6.600;2022-08-19T04:11:54;9.38;;;5.28;;
51836;SDS011;38941;53.254;6.600;2022-08-19T04:13:56;10.70;;;5.15;;
51836;SDS011;38941;53.254;6.600;2022-08-19T04:15:57;8.27;;;4.53;;
51836;SDS011;38941;53.254;6.600;2022-08-19T04:17:58;9.80;;;5.32;;
51836;SDS011;38941;53.254;6.600;2022-08-19T04:19:59;9.52;;;5.80;;
51836;SDS011;38941;53.254;6.600;2022-08-19T04:22:00;8.32;;;4.55;;
51836;SDS011;38941;53.254;6.600;2022-08-19T04:24:01;7.13;;;4.28;;
51836;SDS011;38941;53.254;6.600;2022-08-19T04:26:03;8.10;;;4.78;;
51836;SDS011;38941;53.254;6.600;2022-08-19T04:28:03;8.88;;;4.90;;
51836;SDS011;38941;53.254;6.600;2022-08-19T04:30:04;9.68;;;5.10;;
51836;SDS011;38941;53.254;6.600;2022-08-19T04:32:06;8.30;;;4.50;;
51836;SDS011;38941;53.254;6.600;2022-08-19T04:34:07;9.48;;;4.82;;
51836;SDS011;38941;53.254;6.600;2022-08-19T04:36:16;10.48;;;5.45;;
51836;SDS011;38941;53.254;6.600;2022-08-19T04:38:20;9.85;;;5.35;;
51836;SDS011;38941;53.254;6.600;2022-08-19T04:40:24;8.10;;;4.72;;
51836;SDS011;38941;53.254;6.600;2022-08-19T04:42:44;10.85;;;5.00;;
51836;SDS011;38941;53.254;6.600;2022-08-19T04:44:45;11.68;;;5.25;;
51836;SDS011;38941;53.254;6.600;2022-08-19T04:46:46;11.52;;;5.30;;
51836;SDS011;38941;53.254;6.600;2022-08-19T04:48:48;13.20;;;5.00;;
51836;SDS011;38941;53.254;6.600;2022-08-19T04:50:48;10.40;;;5.03;;
51836;SDS011;38941;53.254;6.600;2022-08-19T04:52:50;14.57;;;5.20;;
51836;SDS011;38941;53.254;6.600;2022-08-19T04:54:52;11.07;;;5.70;;
51836;SDS011;38941;53.254;6.600;2022-08-19T04:56:56;11.55;;;5.47;;
51836;SDS011;38941;53.254;6.600;2022-08-19T04:58:57;10.40;;;5.57;;
51836;SDS011;38941;53.254;6.600;2022-08-19T05:00:58;10.73;;;6.22;;
51836;SDS011;38941;53.254;6.600;2022-08-19T05:03:01;10.23;;;5.32;;
51836;SDS011;38941;53.254;6.600;2022-08-19T05:05:02;10.10;;;5.38;;
51836;SDS011;38941;53.254;6.600;2022-08-19T05:07:03;11.48;;;5.55;;
51836;SDS011;38941;53.254;6.600;2022-08-19T05:09:05;10.77;;;4.90;;
51836;SDS011;38941;53.254;6.600;2022-08-19T05:11:10;11.00;;;5.10;;
51836;SDS011;38941;53.254;6.600;2022-08-19T05:13:16;13.27;;;4.88;;
51836;SDS011;38941;53.254;6.600;2022-08-19T05:15:18;12.30;;;5.72;;
51836;SDS011;38941;53.254;6.600;2022-08-19T05:17:19;9.23;;;5.03;;
51836;SDS011;38941;53.254;6.600;2022-08-19T05:19:21;12.00;;;5.93;;
51836;SDS011;38941;53.254;6.600;2022-08-19T05:21:40;10.80;;;5.20;;
51836;SDS011;38941;53.254;6.600;2022-08-19T05:24:00;8.55;;;4.72;;
51836;SDS011;38941;53.254;6.600;2022-08-19T05:26:02;9.15;;;5.10;;
51836;SDS011;38941;53.254;6.600;2022-08-19T05:28:03;13.65;;;5.78;;
51836;SDS011;38941;53.254;6.600;2022-08-19T05:30:04;12.70;;;5.03;;
51836;SDS011;38941;53.254;6.600;2022-08-19T05:32:06;8.77;;;4.85;;
51836;SDS011;38941;53.254;6.600;2022-08-19T05:34:10;17.95;;;6.40;;
51836;SDS011;38941;53.254;6.600;2022-08-19T05:36:11;12.05;;;5.60;;
51836;SDS011;38941;53.254;6.600;2022-08-19T05:38:13;12.40;;;5.70;;
51836;SDS011;38941;53.254;6.600;2022-08-19T05:40:14;12.30;;;5.53;;
51836;SDS011;38941;53.254;6.600;2022-08-19T05:42:15;8.73;;;5.13;;
51836;SDS011;38941;53.254;6.600;2022-08-19T05:44:16;9.73;;;5.40;;
51836;SDS011;38941;53.254;6.600;2022-08-19T05:46:19;9.35;;;5.20;;
51836;SDS011;38941;53.254;6.600;2022-08-19T05:48:20;10.57;;;5.90;;
51836;SDS011;38941;53.254;6.600;2022-08-19T05:50:21;9.65;;;5.18;;
51836;SDS011;38941;53.254;6.600;2022-08-19T05:52:22;9.10;;;5.22;;
51836;SDS011;38941;53.254;6.600;2022-08-19T05:54:23;11.18;;;5.60;;
51836;SDS011;38941;53.254;6.600;2022-08-19T05:56:24;12.45;;;5.22;;
51836;SDS011;38941;53.254;6.600;2022-08-19T05:58:25;13.35;;;5.45;;
51836;SDS011;38941;53.254;6.600;2022-08-19T06:00:26;9.40;;;5.75;;
51836;SDS011;38941;53.254;6.600;2022-08-19T06:02:27;13.75;;;6.65;;
51836;SDS011;38941;53.254;6.600;2022-08-19T06:04:30;12.40;;;5.53;;
51836;SDS011;38941;53.254;6.600;2022-08-19T06:06:31;9.52;;;5.47;;
51836;SDS011;38941;53.254;6.600;2022-08-19T06:08:34;10.75;;;5.78;;
51836;SDS011;38941;53.254;6.600;2022-08-19T06:10:37;12.18;;;5.95;;
51836;SDS011;38941;53.254;6.600;2022-08-19T06:12:37;13.73;;;6.55;;
51836;SDS011;38941;53.254;6.600;2022-08-19T06:14:38;11.02;;;6.05;;
51836;SDS011;38941;53.254;6.600;2022-08-19T06:16:43;10.63;;;6.75;;
51836;SDS011;38941;53.254;6.600;2022-08-19T06:18:44;13.52;;;5.60;;
51836;SDS011;38941;53.254;6.600;2022-08-19T06:20:48;14.93;;;6.38;;
51836;SDS011;38941;53.254;6.600;2022-08-19T06:22:49;8.70;;;5.53;;
51836;SDS011;38941;53.254;6.600;2022-08-19T06:24:51;12.75;;;5.50;;
51836;SDS011;38941;53.254;6.600;2022-08-19T06:26:54;8.98;;;5.10;;
51836;SDS011;38941;53.254;6.600;2022-08-19T06:28:57;11.25;;;5.15;;
51836;SDS011;38941;53.254;6.600;2022-08-19T06:31:04;11.10;;;5.18;;
51836;SDS011;38941;53.254;6.600;2022-08-19T06:33:06;9.45;;;4.65;;
51836;SDS011;38941;53.254;6.600;2022-08-19T06:35:07;7.45;;;4.38;;
51836;SDS011;38941;53.254;6.600;2022-08-19T06:37:08;10.57;;;4.75;;
51836;SDS011;38941;53.254;6.600;2022-08-19T06:39:10;8.45;;;4.80;;
51836;SDS011;38941;53.254;6.600;2022-08-19T06:41:12;6.72;;;4.47;;
51836;SDS011;38941;53.254;6.600;2022-08-19T06:43:13;8.13;;;4.85;;
51836;SDS011;38941;53.254;6.600;2022-08-19T06:45:15;9.20;;;5.65;;
51836;SDS011;38941;53.254;6.600;2022-08-19T06:47:19;11.18;;;5.50;;
51836;SDS011;38941;53.254;6.600;2022-08-19T06:49:24;10.52;;;5.47;;
51836;SDS011;38941;53.254;6.600;2022-08-19T06:51:30;10.23;;;5.03;;
51836;SDS011;38941;53.254;6.600;2022-08-19T06:53:34;7.93;;;5.07;;
51836;SDS011;38941;53.254;6.600;2022-08-19T06:55:35;8.00;;;4.43;;
51836;SDS011;38941;53.254;6.600;2022-08-19T06:57:36;10.05;;;5.18;;
51836;SDS011;38941;53.254;6.600;2022-08-19T06:59:37;8.27;;;4.82;;
51836;SDS011;38941;53.254;6.600;2022-08-19T07:01:39;6.80;;;4.53;;
51836;SDS011;38941;53.254;6.600;2022-08-19T07:03:41;9.32;;;4.55;;
51836;SDS011;38941;53.254;6.600;2022-08-19T07:05:42;10.02;;;5.00;;
51836;SDS011;38941;53.254;6.600;2022-08-19T07:07:43;9.32;;;4.38;;
51836;SDS011;38941;53.254;6.600;2022-08-19T07:09:44;10.73;;;4.95;;
51836;SDS011;38941;53.254;6.600;2022-08-19T07:11:49;13.70;;;5.25;;
51836;SDS011;38941;53.254;6.600;2022-08-19T07:13:52;10.07;;;4.38;;
51836;SDS011;38941;53.254;6.600;2022-08-19T07:15:54;8.65;;;4.35;;
51836;SDS011;38941;53.254;6.600;2022-08-19T07:17:56;8.55;;;4.13;;
51836;SDS011;38941;53.254;6.600;2022-08-19T07:19:57;11.27;;;4.60;;
51836;SDS011;38941;53.254;6.600;2022-08-19T07:22:00;8.10;;;4.65;;
51836;SDS011;38941;53.254;6.600;2022-08-19T07:24:04;9.82;;;4.78;;
51836;SDS011;38941;53.254;6.600;2022-08-19T07:26:10;8.68;;;4.97;;
51836;SDS011;38941;53.254;6.600;2022-08-19T07:28:16;7.07;;;4.47;;
51836;SDS011;38941;53.254;6.600;2022-08-19T07:30:18;10.55;;;4.63;;
51836;SDS011;38941;53.254;6.600;2022-08-19T07:32:19;7.43;;;4.63;;
51836;SDS011;38941;53.254;6.600;2022-08-19T07:34:19;10.88;;;5.53;;
51836;SDS011;38941;53.254;6.600;2022-08-19T07:36:24;9.02;;;4.93;;
51836;SDS011;38941;53.254;6.600;2022-08-19T07:38:35;9.70;;;4.95;;
51836;SDS011;38941;53.254;6.600;2022-08-19T07:40:36;14.98;;;5.80;;
51836;SDS011;38941;53.254;6.600;2022-08-19T07:42:37;7.80;;;4.80;;
51836;SDS011;38941;53.254;6.600;2022-08-19T07:44:38;9.43;;;4.70;;
51836;SDS011;38941;53.254;6.600;2022-08-19T07:46:41;8.05;;;4.25;;
51836;SDS011;38941;53.254;6.600;2022-08-19T07:48:48;7.45;;;4.10;;
51836;SDS011;38941;53.254;6.600;2022-08-19T07:50:51;9.85;;;4.97;;
51836;SDS011;38941;53.254;6.600;2022-08-19T07:52:55;8.45;;;4.95;;
51836;SDS011;38941;53.254;6.600;2022-08-19T07:54:57;9.00;;;5.47;;
51836;SDS011;38941;53.254;6.600;2022-08-19T07:57:00;8.45;;;5.18;;
51836;SDS011;38941;53.254;6.600;2022-08-19T07:59:03;9.90;;;4.55;;
51836;SDS011;38941;53.254;6.600;2022-08-19T08:01:05;7.03;;;4.65;;
51836;SDS011;38941;53.254;6.600;2022-08-19T08:03:10;11.75;;;5.70;;
51836;SDS011;38941;53.254;6.600;2022-08-19T08:05:12;9.90;;;4.85;;
51836;SDS011;38941;53.254;6.600;2022-08-19T08:07:31;10.90;;;5.32;;
51836;SDS011;38941;53.254;6.600;2022-08-19T08:09:50;8.90;;;4.68;;
51836;SDS011;38941;53.254;6.600;2022-08-19T08:11:54;12.50;;;6.18;;
51836;SDS011;38941;53.254;6.600;2022-08-19T08:14:01;8.88;;;5.15;;
51836;SDS011;38941;53.254;6.600;2022-08-19T08:16:02;10.98;;;5.20;;
51836;SDS011;38941;53.254;6.600;2022-08-19T08:18:03;9.13;;;5.90;;
51836;SDS011;38941;53.254;6.600;2022-08-19T08:20:04;7.63;;;4.82;;
51836;SDS011;38941;53.254;6.600;2022-08-19T08:22:09;7.82;;;5.40;;
51836;SDS011;38941;53.254;6.600;2022-08-19T08:24:34;8.60;;;4.28;;
51836;SDS011;38941;53.254;6.600;2022-08-19T08:26:35;7.95;;;4.75;;
51836;SDS011;38941;53.254;6.600;2022-08-19T08:28:36;9.48;;;5.63;;
51836;SDS011;38941;53.254;6.600;2022-08-19T08:30:37;5.60;;;3.28;;
51836;SDS011;38941;53.254;6.600;2022-08-19T08:32:41;5.53;;;3.88;;
51836;SDS011;38941;53.254;6.600;2022-08-19T08:34:42;4.93;;;3.22;;
51836;SDS011;38941;53.254;6.600;2022-08-19T08:36:44;4.38;;;3.13;;
51836;SDS011;38941;53.254;6.600;2022-08-19T08:38:45;8.80;;;3.90;;
51836;SDS011;38941;53.254;6.600;2022-08-19T08:40:48;6.25;;;3.75;;
51836;SDS011;38941;53.254;6.600;2022-08-19T08:45:12;6.20;;;2.83;;
51836;SDS011;38941;53.254;6.600;2022-08-19T08:47:17;6.22;;;4.40;;
51836;SDS011;38941;53.254;6.600;2022-08-19T08:49:24;5.63;;;3.60;;
51836;SDS011;38941;53.254;6.600;2022-08-19T08:51:34;7.60;;;4.13;;
51836;SDS011;38941;53.254;6.600;2022-08-19T08:53:42;5.88;;;3.75;;
51836;SDS011;38941;53.254;6.600;2022-08-19T08:55:45;9.25;;;4.13;;
51836;SDS011;38941;53.254;6.600;2022-08-19T08:59:48;6.22;;;4.32;;
51836;SDS011;38941;53.254;6.600;2022-08-19T09:01:53;10.45;;;4.28;;
51836;SDS011;38941;53.254;6.600;2022-08-19T09:03:54;9.32;;;5.05;;
51836;SDS011;38941;53.254;6.600;2022-08-19T09:06:00;6.10;;;4.38;;
51836;SDS011;38941;53.254;6.600;2022-08-19T09:10:55;6.70;;;4.72;;
51836;SDS011;38941;53.254;6.600;2022-08-19T09:15:13;6.30;;;4.70;;
51836;SDS011;38941;53.254;6.600;2022-08-19T09:17:16;7.78;;;4.85;;
51836;SDS011;38941;53.254;6.600;2022-08-19T09:19:18;6.95;;;4.35;;
51836;SDS011;38941;53.254;6.600;2022-08-19T09:21:21;6.78;;;4.53;;
51836;SDS011;38941;53.254;6.600;2022-08-19T09:23:25;6.53;;;5.00;;
51836;SDS011;38941;53.254;6.600;2022-08-19T09:25:26;7.30;;;4.00;;
51836;SDS011;38941;53.254;6.600;2022-08-19T09:27:28;7.07;;;4.55;;
51836;SDS011;38941;53.254;6.600;2022-08-19T09:29:30;7.00;;;5.28;;
51836;SDS011;38941;53.254;6.600;2022-08-19T09:31:32;7.93;;;4.38;;
51836;SDS011;38941;53.254;6.600;2022-08-19T09:33:32;7.05;;;5.18;;
51836;SDS011;38941;53.254;6.600;2022-08-19T09:35:33;9.13;;;4.75;;
51836;SDS011;38941;53.254;6.600;2022-08-19T09:37:35;8.65;;;4.65;;
51836;SDS011;38941;53.254;6.600;2022-08-19T09:39:37;6.28;;;4.10;;
51836;SDS011;38941;53.254;6.600;2022-08-19T09:41:39;7.07;;;4.90;;
51836;SDS011;38941;53.254;6.600;2022-08-19T09:43:40;6.00;;;4.00;;
51836;SDS011;38941;53.254;6.600;2022-08-19T09:45:42;6.32;;;4.53;;
51836;SDS011;38941;53.254;6.600;2022-08-19T09:47:44;5.25;;;4.10;;
51836;SDS011;38941;53.254;6.600;2022-08-19T09:49:45;7.15;;;4.32;;
51836;SDS011;38941;53.254;6.600;2022-08-19T09:51:50;5.20;;;3.47;;
51836;SDS011;38941;53.254;6.600;2022-08-19T09:53:52;5.32;;;3.63;;
51836;SDS011;38941;53.254;6.600;2022-08-19T09:55:56;7.25;;;4.00;;
51836;SDS011;38941;53.254;6.600;2022-08-19T09:57:58;6.95;;;3.55;;
51836;SDS011;38941;53.254;6.600;2022-08-19T10:00:06;6.63;;;4.70;;
51836;SDS011;38941;53.254;6.600;2022-08-19T10:02:08;6.68;;;4.32;;
51836;SDS011;38941;53.254;6.600;2022-08-19T10:04:11;5.88;;;4.05;;
51836;SDS011;38941;53.254;6.600;2022-08-19T10:06:11;6.20;;;4.55;;
51836;SDS011;38941;53.254;6.600;2022-08-19T10:08:12;6.82;;;4.45;;
51836;SDS011;38941;53.254;6.600;2022-08-19T10:10:14;5.60;;;3.80;;
51836;SDS011;38941;53.254;6.600;2022-08-19T10:12:15;5.63;;;3.83;;
51836;SDS011;38941;53.254;6.600;2022-08-19T10:14:17;5.30;;;3.20;;
51836;SDS011;38941;53.254;6.600;2022-08-19T10:16:22;7.78;;;5.45;;
51836;SDS011;38941;53.254;6.600;2022-08-19T10:18:24;6.93;;;4.65;;
51836;SDS011;38941;53.254;6.600;2022-08-19T10:20:27;6.10;;;4.57;;
51836;SDS011;38941;53.254;6.600;2022-08-19T10:22:30;7.90;;;4.35;;
51836;SDS011;38941;53.254;6.600;2022-08-19T10:24:31;11.13;;;4.05;;
51836;SDS011;38941;53.254;6.600;2022-08-19T10:26:38;8.00;;;4.82;;
51836;SDS011;38941;53.254;6.600;2022-08-19T10:28:42;6.65;;;5.10;;
51836;SDS011;38941;53.254;6.600;2022-08-19T10:30:43;9.57;;;5.20;;
51836;SDS011;38941;53.254;6.600;2022-08-19T10:32:44;7.55;;;5.38;;
51836;SDS011;38941;53.254;6.600;2022-08-19T10:34:46;5.22;;;4.00;;
51836;SDS011;38941;53.254;6.600;2022-08-19T10:36:49;9.20;;;4.68;;
51836;SDS011;38941;53.254;6.600;2022-08-19T10:38:52;5.93;;;3.58;;
51836;SDS011;38941;53.254;6.600;2022-08-19T10:40:56;6.97;;;5.30;;
51836;SDS011;38941;53.254;6.600;2022-08-19T10:42:57;7.47;;;4.68;;
51836;SDS011;38941;53.254;6.600;2022-08-19T10:44:57;9.25;;;4.95;;
51836;SDS011;38941;53.254;6.600;2022-08-19T10:46:58;8.45;;;4.82;;
51836;SDS011;38941;53.254;6.600;2022-08-19T10:49:00;8.32;;;4.95;;
51836;SDS011;38941;53.254;6.600;2022-08-19T10:51:02;8.30;;;5.45;;
51836;SDS011;38941;53.254;6.600;2022-08-19T10:53:23;7.13;;;4.72;;
51836;SDS011;38941;53.254;6.600;2022-08-19T10:55:26;8.85;;;7.10;;
51836;SDS011;38941;53.254;6.600;2022-08-19T10:57:46;6.63;;;5.20;;
51836;SDS011;38941;53.254;6.600;2022-08-19T10:59:48;10.27;;;4.07;;
51836;SDS011;38941;53.254;6.600;2022-08-19T11:01:49;7.18;;;5.35;;
51836;SDS011;38941;53.254;6.600;2022-08-19T11:03:50;9.00;;;7.07;;
51836;SDS011;38941;53.254;6.600;2022-08-19T11:06:04;7.15;;;5.57;;
51836;SDS011;38941;53.254;6.600;2022-08-19T11:08:08;8.02;;;5.45;;
51836;SDS011;38941;53.254;6.600;2022-08-19T11:10:13;7.32;;;5.78;;
51836;SDS011;38941;53.254;6.600;2022-08-19T11:12:15;7.65;;;5.30;;
51836;SDS011;38941;53.254;6.600;2022-08-19T11:14:17;10.75;;;6.15;;
51836;SDS011;38941;53.254;6.600;2022-08-19T11:16:26;7.82;;;6.20;;
51836;SDS011;38941;53.254;6.600;2022-08-19T11:18:29;11.80;;;6.13;;
51836;SDS011;38941;53.254;6.600;2022-08-19T11:20:30;8.55;;;6.63;;
51836;SDS011;38941;53.254;6.600;2022-08-19T11:22:32;9.60;;;5.47;;
51836;SDS011;38941;53.254;6.600;2022-08-19T11:24:34;8.85;;;6.85;;
51836;SDS011;38941;53.254;6.600;2022-08-19T11:26:37;9.48;;;5.30;;
51836;SDS011;38941;53.254;6.600;2022-08-19T11:28:38;8.32;;;6.13;;
51836;SDS011;38941;53.254;6.600;2022-08-19T11:30:39;10.27;;;7.35;;
51836;SDS011;38941;53.254;6.600;2022-08-19T11:32:41;8.52;;;5.97;;
51836;SDS011;38941;53.254;6.600;2022-08-19T11:34:42;10.55;;;7.88;;
51836;SDS011;38941;53.254;6.600;2022-08-19T11:36:44;8.50;;;6.25;;
51836;SDS011;38941;53.254;6.600;2022-08-19T11:38:48;8.70;;;6.00;;
51836;SDS011;38941;53.254;6.600;2022-08-19T11:40:56;10.05;;;7.05;;
51836;SDS011;38941;53.254;6.600;2022-08-19T11:42:58;8.48;;;6.88;;
51836;SDS011;38941;53.254;6.600;2022-08-19T11:44:59;6.90;;;5.03;;
51836;SDS011;38941;53.254;6.600;2022-08-19T11:47:00;6.53;;;5.57;;
51836;SDS011;38941;53.254;6.600;2022-08-19T11:49:04;6.45;;;4.93;;
51836;SDS011;38941;53.254;6.600;2022-08-19T11:51:10;7.75;;;5.38;;
51836;SDS011;38941;53.254;6.600;2022-08-19T11:53:16;6.15;;;4.82;;
51836;SDS011;38941;53.254;6.600;2022-08-19T11:55:20;7.18;;;5.50;;
51836;SDS011;38941;53.254;6.600;2022-08-19T11:57:21;6.78;;;5.97;;
51836;SDS011;38941;53.254;6.600;2022-08-19T11:59:21;6.78;;;5.57;;
51836;SDS011;38941;53.254;6.600;2022-08-19T12:01:23;8.00;;;5.57;;
51836;SDS011;38941;53.254;6.600;2022-08-19T12:03:25;11.68;;;7.07;;
51836;SDS011;38941;53.254;6.600;2022-08-19T12:05:26;11.70;;;6.80;;
51836;SDS011;38941;53.254;6.600;2022-08-19T12:07:27;12.25;;;7.20;;
51836;SDS011;38941;53.254;6.600;2022-08-19T12:09:27;8.75;;;6.45;;
51836;SDS011;38941;53.254;6.600;2022-08-19T12:11:28;8.07;;;6.10;;
51836;SDS011;38941;53.254;6.600;2022-08-19T12:13:29;11.20;;;6.65;;
51836;SDS011;38941;53.254;6.600;2022-08-19T12:15:30;8.48;;;6.22;;
51836;SDS011;38941;53.254;6.600;2022-08-19T12:17:37;7.45;;;5.88;;
51836;SDS011;38941;53.254;6.600;2022-08-19T12:19:38;8.18;;;5.78;;
51836;SDS011;38941;53.254;6.600;2022-08-19T12:21:39;8.75;;;5.63;;
51836;SDS011;38941;53.254;6.600;2022-08-19T12:23:41;8.15;;;5.05;;
51836;SDS011;38941;53.254;6.600;2022-08-19T12:25:43;6.72;;;4.65;;